Time;durP1;ratioP1;P1;durP2;ratioP2;P2;SDS_P1;SDS_P2;PMS_P1;PMS_P2;Temp;Humidity;BMP_temperature;BMP_pressure;BME280_temperature;BME280_humidity;BME280_pressure;Samples;Min_cycle;Max_cycle;Signal;HPM_P1;HPM_P2
2021/10/18 00:00:44;;;;;;;24.10;11.37;;;;;;;9.96;94.32;101051.14;7403071;77;98986;-89
2021/10/18 00:10:45;;;;;;;26.27;12.50;;;;;;;9.99;94.58;101053.76;7416405;77;98682;-92
2021/10/18 00:20:46;;;;;;;26.37;14.23;;;;;;;10.00;95.17;101057.53;7424955;77;99013;-88
2021/10/18 00:30:48;;;;;;;31.17;14.37;;;;;;;9.98;95.66;101046.67;7436120;77;98829;-89
2021/10/18 00:40:49;;;;;;;32.53;14.37;;;;;;;9.94;95.79;101052.09;7417104;77;99250;-89
2021/10/18 00:50:55;;;;;;;26.07;13.37;;;;;;;9.96;96.32;101064.08;7425230;77;98623;-90
2021/10/18 01:00:54;;;;;;;23.50;13.00;;;;;;;9.95;96.34;101052.30;7394997;77;98638;-92
2021/10/18 01:10:55;;;;;;;27.77;13.68;;;;;;;9.99;95.92;101046.32;7436389;77;98916;-89
2021/10/18 01:20:55;;;;;;;26.40;14.90;;;;;;;9.98;96.42;101046.08;7407764;77;98853;-89
2021/10/18 01:30:56;;;;;;;27.73;14.90;;;;;;;10.02;96.48;101056.59;7420044;77;99066;-90
2021/10/18 01:40:57;;;;;;;27.57;16.40;;;;;;;10.04;96.42;101065.30;7405471;77;99180;-89
2021/10/18 01:50:59;;;;;;;34.07;16.63;;;;;;;10.04;96.55;101062.55;7420768;77;99356;-90
2021/10/18 02:01:01;;;;;;;38.30;18.37;;;;;;;10.04;96.85;101069.42;7372954;78;98862;-91
2021/10/18 02:11:03;;;;;;;35.77;17.90;;;;;;;10.04;96.86;101072.77;7376584;77;98895;-89
2021/10/18 02:21:04;;;;;;;36.65;16.60;;;;;;;10.02;97.24;101075.84;7365931;78;98895;-90
2021/10/18 02:31:05;;;;;;;26.63;14.73;;;;;;;10.02;97.42;101078.59;7362970;78;99286;-90
2021/10/18 02:41:07;;;;;;;36.37;16.50;;;;;;;10.03;97.23;101082.92;7362982;78;99231;-89
2021/10/18 02:51:08;;;;;;;31.47;15.57;;;;;;;10.06;97.43;101075.38;7358212;78;99221;-90
2021/10/18 03:01:11;;;;;;;32.20;15.00;;;;;;;10.05;97.48;101087.54;7405705;77;99280;-91
2021/10/18 03:11:13;;;;;;;26.73;15.07;;;;;;;10.03;97.54;101085.67;7410365;77;98833;-90
2021/10/18 03:21:13;;;;;;;31.70;16.97;;;;;;;10.06;97.42;101089.70;7431888;77;99240;-89
2021/10/18 03:31:14;;;;;;;33.15;16.85;;;;;;;10.06;97.67;101098.76;7445792;75;99375;-90
2021/10/18 03:41:15;;;;;;;29.47;15.43;;;;;;;10.00;97.72;101091.91;7390368;79;99146;-92
2021/10/18 03:51:16;;;;;;;32.07;16.83;;;;;;;9.99;97.88;101106.00;7398094;79;99062;-91
2021/10/18 04:01:17;;;;;;;28.00;15.33;;;;;;;9.98;98.02;101115.41;7329019;79;99230;-89
2021/10/18 04:11:17;;;;;;;34.13;15.03;;;;;;;9.99;98.13;101120.56;7325520;79;99066;-90
2021/10/18 04:21:18;;;;;;;35.43;17.17;;;;;;;9.96;98.25;101126.77;7343247;80;98873;-90
2021/10/18 04:31:19;;;;;;;31.53;15.67;;;;;;;9.95;98.45;101138.92;7355755;79;99030;-90
2021/10/18 04:41:20;;;;;;;31.60;16.83;;;;;;;9.98;98.23;101147.81;7354467;79;98672;-90
2021/10/18 04:51:21;;;;;;;32.00;16.50;;;;;;;9.99;98.42;101152.75;7354398;79;99158;-90
2021/10/18 05:01:22;;;;;;;36.20;18.70;;;;;;;10.01;98.43;101162.81;7345237;79;99032;-90
2021/10/18 05:11:22;;;;;;;32.98;17.04;;;;;;;10.00;98.44;101168.91;7300923;79;99288;-90
2021/10/18 05:21:24;;;;;;;34.77;19.87;;;;;;;10.03;98.44;101179.18;7402408;78;99215;-90
2021/10/18 05:31:24;;;;;;;41.67;20.90;;;;;;;10.02;98.47;101192.71;7385717;78;98895;-90
2021/10/18 05:41:25;;;;;;;40.53;18.97;;;;;;;10.01;98.69;101198.00;7386792;78;98823;-91
2021/10/18 05:51:29;;;;;;;37.73;18.13;;;;;;;9.99;98.92;101207.75;7293082;78;100682;-90
2021/10/18 06:01:30;;;;;;;39.43;20.70;;;;;;;10.00;99.04;101217.59;7359979;78;98872;-89
2021/10/18 06:11:32;;;;;;;48.97;20.77;;;;;;;10.03;99.21;101230.06;7352380;78;131659;-89
2021/10/18 06:21:33;;;;;;;45.15;22.25;;;;;;;10.03;99.52;101235.56;7408270;78;99389;-89
2021/10/18 06:31:34;;;;;;;46.10;21.93;;;;;;;9.98;99.61;101253.69;7439508;78;126641;-91
2021/10/18 06:41:35;;;;;;;42.83;20.37;;;;;;;9.98;99.61;101255.66;7430401;77;184279;-93
2021/10/18 06:51:45;;;;;;;43.30;20.75;;;;;;;9.96;99.44;101273.87;7362934;79;99474;-92
2021/10/18 07:01:40;;;;;;;41.80;19.90;;;;;;;10.03;99.64;101287.03;7354497;78;182036;-92
2021/10/18 07:11:41;;;;;;;42.35;18.85;;;;;;;10.05;99.56;101290.25;7306270;79;1501825;-89
2021/10/18 07:21:42;;;;;;;38.50;19.63;;;;;;;10.10;99.50;101296.31;7391497;78;99087;-91
2021/10/18 07:31:43;;;;;;;40.52;22.07;;;;;;;10.14;99.60;101310.15;7355602;79;160310;-91
2021/10/18 07:41:44;;;;;;;36.90;20.30;;;;;;;10.20;99.33;101310.89;7340393;79;1779739;-88
2021/10/18 07:51:48;;;;;;;37.73;19.60;;;;;;;10.29;98.83;101328.05;7347424;79;102846;-91
2021/10/18 08:01:54;;;;;;;35.07;19.47;;;;;;;10.29;98.41;101325.30;7349257;77;99038;-92
2021/10/18 08:11:55;;;;;;;49.20;19.70;;;;;;;10.35;98.24;101332.73;7308180;78;738953;-92
2021/10/18 08:21:58;;;;;;;30.20;16.20;;;;;;;10.33;98.13;101326.19;7351366;78;216182;-92
2021/10/18 08:31:59;;;;;;;29.00;16.40;;;;;;;10.51;97.89;101335.70;7345594;79;153361;-91
2021/10/18 08:42:06;;;;;;;31.50;15.00;;;;;;;10.60;97.72;101330.83;7358166;78;99209;-92
2021/10/18 08:52:08;;;;;;;35.23;18.70;;;;;;;10.69;97.46;101338.91;7378340;78;98718;-93
2021/10/18 09:02:08;;;;;;;;;;;;;;;10.77;97.15;101353.06;7410552;77;99189;-89
2021/10/18 09:12:26;;;;;;;36.27;20.10;;;;;;;10.77;96.91;101364.88;7451310;77;84871;-92
2021/10/18 09:22:27;;;;;;;41.43;22.33;;;;;;;10.69;96.96;101369.97;7092817;81;138679;-93
2021/10/18 09:32:34;;;;;;;36.47;20.90;;;;;;;10.72;96.65;101362.39;7185642;80;98866;-93
2021/10/18 09:42:35;;;;;;;34.53;19.50;;;;;;;10.77;96.60;101370.95;7206036;80;146855;-94
2021/10/18 10:55:24;;;;;;;38.33;21.77;;;;;;;10.89;96.66;101373.05;7333930;79;99364;-96
2021/10/18 11:05:28;;;;;;;33.43;20.50;;;;;;;11.06;96.90;101365.01;7326253;80;228469;-96
2021/10/18 11:15:29;;;;;;;35.77;22.03;;;;;;;11.25;96.84;101365.05;7312227;79;208071;-93
2021/10/18 11:25:39;;;;;;;35.77;21.60;;;;;;;11.42;96.15;101367.41;7349638;78;148924;-94
2021/10/18 11:35:40;;;;;;;36.13;20.10;;;;;;;11.44;95.50;101355.47;7350417;79;99326;-94
2021/10/18 11:45:46;;;;;;;35.27;21.57;;;;;;;11.52;95.04;101354.45;7341095;80;98879;-96
2021/10/18 11:55:54;;;;;;;30.63;18.73;;;;;;;11.71;94.59;101355.86;7345159;80;99156;-92
2021/10/18 12:05:58;;;;;;;31.17;19.07;;;;;;;11.81;94.01;101346.45;7426194;77;135899;-93
2021/10/18 12:16:09;;;;;;;29.87;18.33;;;;;;;12.08;93.42;101326.67;7417673;77;109721;-96
2021/10/18 12:26:21;;;;;;;23.90;16.77;;;;;;;12.39;92.89;101317.63;7326972;79;99000;-94
2021/10/18 12:36:21;;;;;;;28.57;18.07;;;;;;;12.72;91.60;101322.52;7314217;79;99267;-95
2021/10/18 12:46:28;;;;;;;25.33;16.40;;;;;;;12.76;89.89;101313.70;7343120;78;98872;-90
2021/10/18 12:56:29;;;;;;;22.10;14.40;;;;;;;12.82;89.37;101313.61;7371297;78;98871;-94
2021/10/18 13:06:30;;;;;;;25.03;13.03;;;;;;;12.86;88.24;101313.09;7418435;77;98807;-93
2021/10/18 13:16:30;;;;;;;22.13;13.10;;;;;;;12.86;87.48;101311.10;7172577;80;99383;-89
2021/10/18 13:26:31;;;;;;;19.45;12.07;;;;;;;12.86;87.14;101308.94;7098206;80;2561238;-92
2021/10/18 13:36:33;;;;;;;17.50;11.75;;;;;;;12.97;86.66;101301.05;7164103;79;99150;-93
2021/10/18 13:46:35;;;;;;;19.43;10.10;;;;;;;12.98;86.34;101300.47;6989764;81;98903;-94
2021/10/18 13:56:41;;;;;;;20.77;11.23;;;;;;;12.97;86.24;101303.80;7097436;80;99058;-95
2021/10/18 14:06:43;;;;;;;19.50;11.03;;;;;;;12.96;85.99;101302.22;7000804;83;99180;-93
2021/10/18 14:16:44;;;;;;;17.60;9.57;;;;;;;12.89;85.60;101302.09;6991933;82;99282;-91
2021/10/18 14:26:45;;;;;;;17.83;9.87;;;;;;;12.84;85.97;101302.40;7095391;81;180176;-95
2021/10/18 14:36:45;;;;;;;21.07;12.37;;;;;;;12.80;85.76;101304.91;7252950;79;98163;-96
2021/10/18 14:46:47;;;;;;;21.35;11.05;;;;;;;12.65;85.91;101310.75;7322633;79;99440;-96
2021/10/18 14:56:48;;;;;;;17.77;10.98;;;;;;;12.54;86.03;101301.50;7000127;78;117454;-86
2021/10/18 15:06:49;;;;;;;26.50;13.73;;;;;;;12.50;86.37;101298.47;7185497;80;99284;-85
2021/10/18 15:16:51;;;;;;;28.57;15.87;;;;;;;12.41;86.64;101303.42;7176761;80;119773;-86
2021/10/18 15:26:51;;;;;;;42.05;21.60;;;;;;;12.37;86.93;101301.21;7153161;80;2532541;-85
2021/10/18 15:36:55;;;;;;;33.50;18.32;;;;;;;12.29;87.13;101303.05;7200377;81;99222;-86
2021/10/18 15:46:55;;;;;;;31.70;16.27;;;;;;;12.24;87.49;101306.67;7107533;79;4503577;-87
2021/10/18 15:56:56;;;;;;;33.18;20.00;;;;;;;12.17;87.77;101297.70;7111465;81;2430944;-87
2021/10/18 16:06:58;;;;;;;39.83;22.93;;;;;;;12.10;87.96;101286.52;7150177;81;99144;-88
2021/10/18 16:17:04;;;;;;;34.53;20.92;;;;;;;12.08;88.10;101285.28;7159625;80;98846;-87
2021/10/18 16:27:05;;;;;;;30.77;18.93;;;;;;;12.03;88.32;101289.15;7163342;79;99150;-86
2021/10/18 16:37:06;;;;;;;29.77;18.33;;;;;;;11.92;88.58;101295.05;7146617;81;98778;-86
2021/10/18 16:47:08;;;;;;;39.30;21.00;;;;;;;11.82;88.91;101301.15;7156303;81;150128;-86
2021/10/18 16:57:08;;;;;;;31.27;18.73;;;;;;;11.72;89.42;101301.73;7137463;80;99741;-87
2021/10/18 17:07:09;;;;;;;32.47;18.97;;;;;;;11.67;89.79;101300.64;7140739;80;99064;-87
2021/10/18 17:17:10;;;;;;;36.07;20.97;;;;;;;11.57;89.94;101292.13;7133193;81;195311;-86
2021/10/18 17:27:11;;;;;;;34.13;19.40;;;;;;;11.58;90.12;101297.86;7142329;81;99066;-87
2021/10/18 17:37:12;;;;;;;33.20;17.92;;;;;;;11.56;90.25;101293.30;7136166;81;110124;-87
2021/10/18 17:47:13;;;;;;;30.47;16.07;;;;;;;11.52;90.23;101283.58;7147774;81;99392;-88
2021/10/18 17:57:14;;;;;;;32.13;16.10;;;;;;;11.49;90.41;101292.56;7127540;81;99030;-87
2021/10/18 18:07:17;;;;;;;25.77;14.50;;;;;;;11.50;90.20;101296.12;7157315;80;98907;-88
2021/10/18 18:17:17;;;;;;;25.93;13.43;;;;;;;11.53;89.67;101296.77;7117117;80;99521;-87
2021/10/18 18:27:18;;;;;;;16.97;9.73;;;;;;;11.57;89.41;101297.64;7141036;81;99079;-87
2021/10/18 18:37:20;;;;;;;15.17;8.87;;;;;;;11.60;88.81;101308.77;7142504;81;98918;-84
2021/10/18 18:47:22;;;;;;;19.07;8.30;;;;;;;11.64;88.31;101314.36;7140279;81;100423;-86
2021/10/18 18:57:23;;;;;;;16.12;7.83;;;;;;;11.70;87.17;101323.94;7126525;81;99161;-85
2021/10/18 19:07:24;;;;;;;15.20;7.50;;;;;;;11.74;86.91;101330.33;7135642;81;99047;-87
2021/10/18 19:17:24;;;;;;;13.40;6.87;;;;;;;11.77;86.15;101336.52;7144124;80;99025;-84
2021/10/18 19:27:25;;;;;;;15.63;7.00;;;;;;;11.80;86.02;101331.06;7142473;80;99270;-85
2021/10/18 19:37:26;;;;;;;14.98;6.45;;;;;;;11.82;85.57;101334.25;7136815;79;99279;-87
2021/10/18 19:47:28;;;;;;;13.10;6.80;;;;;;;11.82;85.01;101334.84;7132969;81;98923;-86
2021/10/18 19:57:29;;;;;;;15.80;6.50;;;;;;;11.83;84.67;101344.11;7133523;80;1877585;-87
2021/10/18 20:07:29;;;;;;;18.15;7.12;;;;;;;11.81;84.68;101340.93;7125247;80;1787055;-86
2021/10/18 20:17:30;;;;;;;15.73;7.63;;;;;;;11.83;84.32;101347.47;7153986;81;99295;-85
2021/10/18 20:27:32;;;;;;;13.80;7.77;;;;;;;11.82;84.11;101350.02;7135759;80;98691;-86
2021/10/18 20:37:33;;;;;;;14.30;7.07;;;;;;;11.81;84.22;101356.67;7161583;80;105869;-86
2021/10/18 20:47:33;;;;;;;13.00;7.13;;;;;;;11.77;84.30;101362.71;7131411;80;2608986;-85
2021/10/18 20:57:35;;;;;;;20.40;8.20;;;;;;;11.76;84.18;101361.09;7147472;80;99187;-86
2021/10/18 21:07:37;;;;;;;13.10;7.50;;;;;;;11.74;84.36;101378.02;7121243;79;98867;-86
2021/10/18 21:17:38;;;;;;;12.87;7.10;;;;;;;11.71;84.49;101377.36;7110939;81;2268600;-86
2021/10/18 21:27:38;;;;;;;15.38;8.78;;;;;;;11.65;84.66;101373.86;7135542;81;99512;-86
2021/10/18 21:37:40;;;;;;;13.73;7.63;;;;;;;11.61;84.72;101377.14;7144122;80;114065;-86
2021/10/18 21:47:41;;;;;;;13.03;7.43;;;;;;;11.56;84.84;101380.92;7101094;81;98853;-86
2021/10/18 21:57:42;;;;;;;14.15;7.90;;;;;;;11.46;85.23;101372.43;7066108;81;98673;-86
2021/10/18 22:07:43;;;;;;;16.27;8.60;;;;;;;11.41;85.57;101364.44;7076056;81;99015;-85
2021/10/18 22:17:45;;;;;;;18.27;9.07;;;;;;;11.34;85.79;101376.09;7040361;81;2253944;-91
2021/10/18 22:27:49;;;;;;;14.40;7.30;;;;;;;11.26;85.93;101377.10;7059037;82;98538;-91
2021/10/18 22:37:54;;;;;;;16.40;8.37;;;;;;;11.19;86.45;101377.51;7021309;81;2004850;-92
2021/10/18 22:48:00;;;;;;;16.53;9.13;;;;;;;11.12;86.80;101374.59;7103717;81;99166;-92
2021/10/18 22:59:22;;;;;;;;;;;;;;;;;;;;;
2021/10/18 23:09:03;;;;;;;23.00;11.40;;;;;;;10.89;87.55;101366.16;6943492;78;98722;-90
2021/10/18 23:19:53;;;;;;;;;;;;;;;;;;;;;
2021/10/18 23:41:35;;;;;;;;;;;;;;;;;;;;;
